createdAt,value
2018-09-30T00:01:09.249Z,11.75
2018-09-30T00:03:37.501Z,13.13
2018-09-30T00:06:05.718Z,13.72
2018-09-30T00:08:33.781Z,15.55
2018-09-30T00:11:02.105Z,15.25
2018-09-30T00:13:30.387Z,16.27
2018-09-30T00:15:58.665Z,17.30
2018-09-30T00:18:26.879Z,18.25
2018-09-30T00:20:55.139Z,16.27
2018-09-30T00:23:23.354Z,17.70
2018-09-30T00:25:56.972Z,17.48
2018-09-30T00:28:25.266Z,17.50
2018-09-30T00:30:53.492Z,16.90
2018-09-30T00:33:21.514Z,15.88
2018-09-30T00:35:49.735Z,15.63
2018-09-30T00:38:17.954Z,13.95
2018-09-30T00:40:46.181Z,15.68
2018-09-30T00:43:14.407Z,14.78
2018-09-30T00:45:42.633Z,13.83
2018-09-30T00:48:10.861Z,14.28
2018-09-30T00:50:39.139Z,13.65
2018-09-30T00:53:07.449Z,12.73
2018-09-30T00:55:35.688Z,11.70
2018-09-30T00:58:03.665Z,11.08
2018-09-30T01:00:31.949Z,10.00
2018-09-30T01:03:00.211Z,10.05
2018-09-30T01:05:28.796Z,9.73
2018-09-30T01:07:57.099Z,9.23
2018-09-30T01:10:25.077Z,9.95
2018-09-30T01:12:53.293Z,8.28
2018-09-30T01:15:21.570Z,8.20
2018-09-30T01:17:49.794Z,7.10
2018-09-30T01:20:18.045Z,7.15
2018-09-30T01:22:46.326Z,7.08
2018-09-30T01:25:14.405Z,7.28
2018-09-30T01:27:42.669Z,6.60
2018-09-30T01:30:11.201Z,6.05
2018-09-30T01:32:39.485Z,6.03
2018-09-30T01:35:07.730Z,6.25
2018-09-30T01:37:36.037Z,6.40
2018-09-30T01:40:04.289Z,6.80
2018-09-30T01:42:32.722Z,6.12
2018-09-30T01:45:00.700Z,5.47
2018-09-30T01:47:28.915Z,5.97
2018-09-30T01:49:57.109Z,6.22
2018-09-30T01:53:02.330Z,6.28
2018-09-30T01:55:30.537Z,6.22
2018-09-30T01:57:59.133Z,6.00
2018-09-30T02:00:27.330Z,6.33
2018-09-30T02:02:55.557Z,6.00
2018-09-30T02:05:23.757Z,6.35
2018-09-30T02:07:52.021Z,6.03
2018-09-30T02:10:20.314Z,6.85
2018-09-30T02:12:48.514Z,5.75
2018-09-30T02:15:16.745Z,6.35
2018-09-30T02:17:44.979Z,6.47
2018-09-30T02:20:13.220Z,6.15
2018-09-30T02:22:41.457Z,6.42
2018-09-30T02:25:09.662Z,6.10
2018-09-30T02:27:37.869Z,5.80
2018-09-30T02:30:05.830Z,6.37
2018-09-30T02:32:34.033Z,5.65
2018-09-30T02:35:02.317Z,5.83
2018-09-30T02:37:30.622Z,6.60
2018-09-30T02:39:58.861Z,6.60
2018-09-30T02:42:27.165Z,6.22
2018-09-30T02:44:55.411Z,7.15
2018-09-30T02:47:23.632Z,5.78
2018-09-30T02:49:51.869Z,5.97
2018-09-30T02:52:20.089Z,5.80
2018-09-30T02:54:48.329Z,6.12
2018-09-30T02:57:16.628Z,6.58
2018-09-30T02:59:44.873Z,5.85
2018-09-30T03:02:13.153Z,5.85
2018-09-30T03:04:41.369Z,6.78
2018-09-30T03:07:15.018Z,6.58
2018-09-30T03:09:43.617Z,7.00
2018-09-30T03:12:12.049Z,6.37
2018-09-30T03:14:40.396Z,5.55
2018-09-30T03:17:08.585Z,5.92
2018-09-30T03:19:36.926Z,6.90
2018-09-30T03:22:05.120Z,6.45
2018-09-30T03:24:33.395Z,6.90
2018-09-30T03:27:01.596Z,6.60
2018-09-30T03:29:29.845Z,6.65
2018-09-30T03:31:58.119Z,6.95
2018-09-30T03:34:26.401Z,7.70
2018-09-30T03:36:54.607Z,7.28
2018-09-30T03:39:22.587Z,7.00
2018-09-30T03:41:50.798Z,6.80
2018-09-30T03:44:18.995Z,7.00
2018-09-30T03:46:47.206Z,6.35
2018-09-30T03:49:15.473Z,6.55
2018-09-30T03:51:43.722Z,7.40
2018-09-30T03:54:11.986Z,7.60
2018-09-30T03:56:40.044Z,7.20
2018-09-30T03:59:08.322Z,7.72
2018-09-30T04:01:36.519Z,7.58
2018-09-30T04:04:04.774Z,6.60
2018-09-30T04:06:32.989Z,7.75
2018-09-30T04:09:01.288Z,8.20
2018-09-30T04:11:29.295Z,7.47
2018-09-30T04:13:57.603Z,6.92
2018-09-30T04:16:25.880Z,7.85
2018-09-30T04:18:53.886Z,7.72
2018-09-30T04:21:22.177Z,7.90
2018-09-30T04:23:54.885Z,6.85
2018-09-30T04:26:23.145Z,7.28
2018-09-30T04:28:51.465Z,7.50
2018-09-30T04:31:19.681Z,6.45
2018-09-30T04:33:47.905Z,7.28
2018-09-30T04:36:16.114Z,7.75
2018-09-30T04:38:44.365Z,7.67
2018-09-30T04:41:12.620Z,7.75
2018-09-30T04:43:40.867Z,8.23
2018-09-30T04:46:09.125Z,7.37
2018-09-30T04:48:37.335Z,9.03
2018-09-30T04:51:05.541Z,7.35
2018-09-30T04:53:33.822Z,8.38
2018-09-30T04:56:01.832Z,8.18
2018-09-30T04:58:30.081Z,7.90
2018-09-30T05:00:58.044Z,9.40
2018-09-30T05:03:26.261Z,8.38
2018-09-30T05:05:54.595Z,7.85
2018-09-30T05:08:22.822Z,9.00
2018-09-30T05:10:51.089Z,8.28
2018-09-30T05:13:19.343Z,7.95
2018-09-30T05:15:47.650Z,7.78
2018-09-30T05:18:15.854Z,8.30
2018-09-30T05:20:44.147Z,8.43
2018-09-30T05:23:12.369Z,8.10
2018-09-30T05:25:40.769Z,8.20
2018-09-30T05:28:08.914Z,8.30
2018-09-30T05:30:37.181Z,7.90
2018-09-30T05:33:05.416Z,7.53
2018-09-30T05:35:33.666Z,8.10
2018-09-30T05:38:01.938Z,8.30
2018-09-30T05:40:30.364Z,8.55
2018-09-30T05:42:58.569Z,8.73
2018-09-30T05:45:26.904Z,7.85
2018-09-30T05:47:54.911Z,7.53
2018-09-30T05:50:22.878Z,7.33
2018-09-30T05:52:50.866Z,7.85
2018-09-30T05:55:18.852Z,7.83
2018-09-30T05:57:46.852Z,7.25
2018-09-30T06:00:15.035Z,7.87
2018-09-30T06:02:43.045Z,7.37
2018-09-30T06:05:11.253Z,7.17
2018-09-30T06:07:39.524Z,6.70
2018-09-30T06:10:07.805Z,7.35
2018-09-30T06:12:36.021Z,7.20
2018-09-30T06:15:04.036Z,7.25
2018-09-30T06:17:32.278Z,8.55
2018-09-30T06:20:00.489Z,8.10
2018-09-30T06:22:28.758Z,7.80
2018-09-30T06:24:56.971Z,8.28
2018-09-30T06:27:25.218Z,8.00
2018-09-30T06:29:53.506Z,7.60
2018-09-30T06:32:21.732Z,7.70
2018-09-30T06:34:49.964Z,8.90
2018-09-30T06:37:18.267Z,7.83
2018-09-30T06:39:46.210Z,8.23
2018-09-30T06:42:14.217Z,8.33
2018-09-30T06:44:42.521Z,8.70
2018-09-30T06:47:10.730Z,8.40
2018-09-30T06:49:38.726Z,8.85
2018-09-30T06:52:06.998Z,8.53
2018-09-30T06:54:35.346Z,7.15
2018-09-30T06:57:03.348Z,6.87
2018-09-30T06:59:31.794Z,7.33
2018-09-30T07:02:00.016Z,7.50
2018-09-30T07:04:28.303Z,7.65
2018-09-30T07:06:56.605Z,7.10
2018-09-30T07:09:24.578Z,6.15
2018-09-30T07:11:52.614Z,7.40
2018-09-30T07:14:20.934Z,6.62
2018-09-30T07:16:49.238Z,7.33
2018-09-30T07:19:17.433Z,6.80
2018-09-30T07:21:45.714Z,5.85
2018-09-30T07:24:13.953Z,6.20
2018-09-30T07:26:42.185Z,5.92
2018-09-30T07:29:10.410Z,5.60
2018-09-30T07:31:38.665Z,5.72
2018-09-30T07:34:07.321Z,5.70
2018-09-30T07:36:35.385Z,5.65
2018-09-30T07:39:03.742Z,6.10
2018-09-30T07:41:31.993Z,5.20
2018-09-30T07:44:00.249Z,6.00
2018-09-30T07:46:28.540Z,6.40
2018-09-30T07:48:56.749Z,5.78
2018-09-30T07:51:24.831Z,5.60
2018-09-30T07:53:53.071Z,5.42
2018-09-30T07:56:21.305Z,5.55
2018-09-30T07:58:49.533Z,6.40
2018-09-30T08:01:17.788Z,5.60
2018-09-30T08:03:46.387Z,6.70
2018-09-30T08:06:14.648Z,5.65
2018-09-30T08:08:42.858Z,5.40
2018-09-30T08:11:11.314Z,5.35
2018-09-30T08:13:39.509Z,5.95
2018-09-30T08:16:08.093Z,6.30
2018-09-30T08:18:36.389Z,5.97
2018-09-30T08:21:04.695Z,6.70
2018-09-30T08:23:33.003Z,6.60
2018-09-30T08:26:01.332Z,6.53
2018-09-30T08:28:29.593Z,5.67
2018-09-30T08:30:57.921Z,6.30
2018-09-30T08:33:26.265Z,7.10
2018-09-30T08:36:00.026Z,6.00
2018-09-30T08:38:31.101Z,6.13
2018-09-30T08:41:04.449Z,6.40
2018-09-30T08:43:33.813Z,5.50
2018-09-30T08:46:02.245Z,5.70
2018-09-30T08:48:30.514Z,5.50
2018-09-30T08:50:58.807Z,5.07
2018-09-30T08:53:27.247Z,5.73
2018-09-30T08:55:56.364Z,5.67
2018-09-30T08:58:25.422Z,4.60
2018-09-30T09:00:53.665Z,5.00
2018-09-30T09:03:21.917Z,5.50
2018-09-30T09:05:50.173Z,5.60
2018-09-30T09:08:18.440Z,5.43
2018-09-30T09:10:46.921Z,5.70
2018-09-30T09:13:15.197Z,6.33
2018-09-30T09:15:43.593Z,5.97
2018-09-30T09:18:12.321Z,6.03
2018-09-30T09:20:40.566Z,5.10
2018-09-30T09:23:08.931Z,5.97
2018-09-30T09:25:37.329Z,6.20
2018-09-30T09:28:05.911Z,8.03
2018-09-30T09:30:34.135Z,5.83
2018-09-30T09:33:02.425Z,5.30
2018-09-30T09:35:30.761Z,5.93
2018-09-30T09:37:58.987Z,6.70
2018-09-30T09:40:27.233Z,5.20
2018-09-30T09:42:55.514Z,4.43
2018-09-30T09:45:23.735Z,5.90
2018-09-30T09:47:51.946Z,5.50
2018-09-30T09:50:20.221Z,5.83
2018-09-30T09:52:48.462Z,5.10
2018-09-30T09:55:16.783Z,6.60
2018-09-30T09:57:45.040Z,5.87
2018-09-30T10:00:17.492Z,5.07
2018-09-30T10:02:45.795Z,5.23
2018-09-30T10:05:14.158Z,5.17
2018-09-30T10:07:42.761Z,4.73
2018-09-30T10:10:10.982Z,4.93
2018-09-30T10:12:39.222Z,5.57
2018-09-30T10:15:07.429Z,5.40
2018-09-30T10:17:35.718Z,4.90
2018-09-30T10:20:03.930Z,4.40
2018-09-30T10:22:32.225Z,4.47
2018-09-30T10:25:00.561Z,4.30
2018-09-30T10:27:28.866Z,3.30
2018-09-30T10:29:57.082Z,4.20
2018-09-30T10:32:25.658Z,3.67
2018-09-30T10:34:53.898Z,4.50
2018-09-30T10:37:22.174Z,4.87
2018-09-30T10:39:50.492Z,5.27
2018-09-30T10:42:18.718Z,5.37
2018-09-30T10:44:46.951Z,5.50
2018-09-30T10:47:15.320Z,6.40
2018-09-30T10:49:43.554Z,5.00
2018-09-30T10:52:11.830Z,5.13
2018-09-30T10:54:40.094Z,5.50
2018-09-30T10:57:08.301Z,4.77
2018-09-30T10:59:36.630Z,4.03
2018-09-30T11:02:04.937Z,5.17
2018-09-30T11:04:33.248Z,4.03
2018-09-30T11:07:01.717Z,4.43
2018-09-30T11:09:30.090Z,2.70
2018-09-30T11:11:58.267Z,2.53
2018-09-30T11:14:26.555Z,3.03
2018-09-30T11:16:54.931Z,2.53
2018-09-30T11:19:23.309Z,2.13
2018-09-30T11:21:51.509Z,2.47
2018-09-30T11:24:19.862Z,2.10
2018-09-30T11:26:48.093Z,2.23
2018-09-30T11:29:16.291Z,2.87
2018-09-30T11:31:44.594Z,2.53
2018-09-30T11:34:12.811Z,2.63
2018-09-30T11:36:41.009Z,2.30
2018-09-30T11:39:10.585Z,2.60
2018-09-30T11:41:38.917Z,2.57
2018-09-30T11:44:07.144Z,2.50
2018-09-30T11:46:35.426Z,2.60
2018-09-30T11:49:03.629Z,2.67
2018-09-30T11:51:31.845Z,2.37
2018-09-30T11:54:00.100Z,2.57
2018-09-30T11:56:28.333Z,2.80
2018-09-30T11:58:56.566Z,2.73
2018-09-30T12:01:24.959Z,3.00
2018-09-30T12:03:53.162Z,2.20
2018-09-30T12:06:21.397Z,2.80
2018-09-30T12:08:49.705Z,2.87
2018-09-30T12:11:17.938Z,2.70
2018-09-30T12:13:46.213Z,2.60
2018-09-30T12:16:14.457Z,2.90
2018-09-30T12:18:42.823Z,3.23
2018-09-30T12:21:11.014Z,3.20
2018-09-30T12:23:39.261Z,3.50
2018-09-30T12:26:07.878Z,3.37
2018-09-30T12:28:36.122Z,3.00
2018-09-30T12:31:04.501Z,3.07
2018-09-30T12:33:32.800Z,3.53
2018-09-30T12:36:01.114Z,3.07
2018-09-30T12:38:29.357Z,3.13
2018-09-30T12:40:57.599Z,3.47
2018-09-30T12:43:25.817Z,3.93
2018-09-30T12:45:54.084Z,3.50
2018-09-30T12:48:22.342Z,3.33
2018-09-30T12:50:50.639Z,3.73
2018-09-30T12:53:18.846Z,3.80
2018-09-30T12:55:47.110Z,3.90
2018-09-30T12:58:15.369Z,3.80
2018-09-30T13:00:43.617Z,3.73
2018-09-30T13:03:11.822Z,3.57
2018-09-30T13:05:40.085Z,3.50
2018-09-30T13:08:08.360Z,4.10
2018-09-30T13:10:36.625Z,3.30
2018-09-30T13:13:04.872Z,3.80
2018-09-30T13:15:33.126Z,3.27
2018-09-30T13:18:01.386Z,3.10
2018-09-30T13:20:29.618Z,2.60
2018-09-30T13:22:57.854Z,2.90
2018-09-30T13:25:26.146Z,4.03
2018-09-30T13:27:54.520Z,3.57
2018-09-30T13:30:22.774Z,3.30
2018-09-30T13:32:51.142Z,3.20
2018-09-30T13:35:19.357Z,3.40
2018-09-30T13:37:47.613Z,3.87
2018-09-30T13:40:16.022Z,4.63
2018-09-30T13:42:44.094Z,3.93
2018-09-30T13:45:12.396Z,3.87
2018-09-30T13:47:40.631Z,3.93
2018-09-30T13:50:08.837Z,3.67
2018-09-30T13:52:37.181Z,3.90
2018-09-30T13:55:05.482Z,3.97
2018-09-30T13:57:33.785Z,3.30
2018-09-30T14:00:02.161Z,3.37
2018-09-30T14:02:30.417Z,3.03
2018-09-30T14:04:58.730Z,2.90
2018-09-30T14:07:27.044Z,3.37
2018-09-30T14:09:55.278Z,3.50
2018-09-30T14:12:23.503Z,3.40
2018-09-30T14:14:51.752Z,2.70
2018-09-30T14:17:19.974Z,2.73
2018-09-30T14:19:48.230Z,2.93
2018-09-30T14:22:16.494Z,2.63
2018-09-30T14:24:44.783Z,2.93
2018-09-30T14:27:13.082Z,2.33
2018-09-30T14:29:41.273Z,2.80
2018-09-30T14:32:09.614Z,2.70
2018-09-30T14:34:37.973Z,2.20
2018-09-30T14:37:06.412Z,2.70
2018-09-30T14:39:34.644Z,2.43
2018-09-30T14:42:02.929Z,2.50
2018-09-30T14:44:31.259Z,3.10
2018-09-30T14:46:59.618Z,2.80
2018-09-30T14:49:27.828Z,2.83
2018-09-30T14:51:56.052Z,2.60
2018-09-30T14:54:24.519Z,2.77
2018-09-30T14:56:52.742Z,2.80
2018-09-30T14:59:21.017Z,2.60
2018-09-30T15:01:49.297Z,2.80
2018-09-30T15:04:17.517Z,2.60
2018-09-30T15:06:45.802Z,2.83
2018-09-30T15:09:15.538Z,3.20
2018-09-30T15:11:43.866Z,2.57
2018-09-30T15:14:12.170Z,2.70
2018-09-30T15:16:40.639Z,2.83
2018-09-30T15:19:08.880Z,2.60
2018-09-30T15:21:37.127Z,3.30
2018-09-30T15:24:05.394Z,2.57
2018-09-30T15:26:33.682Z,2.87
2018-09-30T15:29:01.907Z,2.87
2018-09-30T15:31:30.154Z,3.80
2018-09-30T15:33:58.392Z,3.37
2018-09-30T15:36:26.621Z,2.60
2018-09-30T15:38:54.939Z,2.60
2018-09-30T15:41:23.155Z,2.80
2018-09-30T15:43:52.436Z,2.43
2018-09-30T15:46:20.671Z,3.40
2018-09-30T15:48:48.921Z,3.47
2018-09-30T15:51:17.139Z,2.60
2018-09-30T15:53:45.389Z,2.80
2018-09-30T15:56:13.718Z,3.13
2018-09-30T15:58:41.977Z,3.50
2018-09-30T16:01:10.191Z,2.87
2018-09-30T16:03:38.514Z,2.90
2018-09-30T16:06:06.829Z,2.90
2018-09-30T16:08:35.116Z,3.30
2018-09-30T16:11:03.375Z,3.57
2018-09-30T16:13:31.578Z,3.42
2018-09-30T16:15:59.801Z,3.80
2018-09-30T16:18:28.033Z,4.33
2018-09-30T16:20:56.253Z,4.20
2018-09-30T16:23:24.555Z,4.37
2018-09-30T16:25:52.778Z,4.20
2018-09-30T16:28:21.268Z,4.10
2018-09-30T16:30:49.468Z,4.12
2018-09-30T16:33:17.921Z,5.10
2018-09-30T16:35:46.155Z,4.80
2018-09-30T16:38:14.365Z,4.60
2018-09-30T16:40:42.641Z,5.05
2018-09-30T16:43:10.889Z,4.08
2018-09-30T16:45:39.203Z,5.25
2018-09-30T16:48:07.446Z,4.30
2018-09-30T16:50:35.739Z,4.97
2018-09-30T16:53:04.032Z,4.30
2018-09-30T16:55:32.287Z,5.05
2018-09-30T16:58:00.653Z,5.15
2018-09-30T17:00:28.937Z,5.20
2018-09-30T17:02:57.213Z,5.17
2018-09-30T17:05:25.528Z,5.83
2018-09-30T17:07:53.846Z,6.22
2018-09-30T17:10:22.125Z,5.95
2018-09-30T17:12:50.396Z,5.65
2018-09-30T17:15:18.737Z,4.95
2018-09-30T17:17:47.058Z,4.20
2018-09-30T17:20:15.355Z,4.60
2018-09-30T17:22:43.570Z,3.67
2018-09-30T17:25:12.128Z,7.78
2018-09-30T17:27:40.466Z,4.92
2018-09-30T17:30:08.722Z,6.10
2018-09-30T17:32:36.964Z,4.03
2018-09-30T17:35:05.470Z,7.65
2018-09-30T17:37:33.727Z,4.53
2018-09-30T17:40:01.988Z,5.08
2018-09-30T17:42:30.637Z,6.00
2018-09-30T17:44:58.984Z,11.00
2018-09-30T17:47:27.205Z,4.55
2018-09-30T17:49:55.425Z,5.00
2018-09-30T17:52:24.007Z,4.50
2018-09-30T17:54:52.320Z,6.30
2018-09-30T17:57:20.657Z,7.85
2018-09-30T17:59:49.283Z,6.80
2018-09-30T18:02:17.701Z,8.85
2018-09-30T18:04:46.057Z,11.03
2018-09-30T18:07:14.306Z,7.72
2018-09-30T18:09:43.146Z,5.72
2018-09-30T18:12:11.403Z,5.75
2018-09-30T18:14:39.622Z,6.00
2018-09-30T18:17:08.534Z,10.48
2018-09-30T18:19:36.831Z,7.30
2018-09-30T18:22:05.105Z,6.30
2018-09-30T18:24:33.361Z,7.50
2018-09-30T18:27:01.677Z,6.65
2018-09-30T18:29:29.981Z,6.72
2018-09-30T18:31:58.245Z,7.30
2018-09-30T18:34:26.612Z,4.28
2018-09-30T18:36:55.111Z,3.80
2018-09-30T18:39:23.479Z,4.08
2018-09-30T18:41:51.780Z,3.45
2018-09-30T18:44:20.184Z,3.52
2018-09-30T18:46:48.485Z,2.70
2018-09-30T18:49:16.778Z,2.72
2018-09-30T18:51:45.070Z,3.20
2018-09-30T18:54:13.341Z,3.17
2018-09-30T18:56:41.567Z,2.40
2018-09-30T18:59:10.297Z,3.50
2018-09-30T19:01:38.750Z,2.40
2018-09-30T19:04:07.061Z,2.17
2018-09-30T19:06:35.350Z,3.02
2018-09-30T19:09:04.680Z,2.20
2018-09-30T19:11:32.978Z,3.35
2018-09-30T19:14:01.317Z,2.12
2018-09-30T19:16:29.620Z,2.25
2018-09-30T19:18:57.914Z,1.70
2018-09-30T19:21:26.174Z,2.62
2018-09-30T19:23:54.463Z,2.77
2018-09-30T19:26:22.746Z,2.42
2018-09-30T19:28:51.159Z,2.25
2018-09-30T19:31:19.549Z,2.55
2018-09-30T19:33:47.800Z,3.02
2018-09-30T19:36:16.196Z,2.70
2018-09-30T19:38:44.419Z,2.52
2018-09-30T19:41:12.658Z,1.98
2018-09-30T19:43:40.869Z,2.90
2018-09-30T19:46:09.618Z,3.65
2018-09-30T19:48:37.892Z,3.22
2018-09-30T19:51:06.151Z,3.58
2018-09-30T19:53:34.706Z,3.05
2018-09-30T19:56:02.973Z,3.58
2018-09-30T19:58:31.501Z,3.40
2018-09-30T20:00:59.879Z,3.85
2018-09-30T20:03:28.120Z,5.75
2018-09-30T20:05:56.409Z,2.75
2018-09-30T20:08:24.698Z,2.80
2018-09-30T20:10:53.021Z,3.37
2018-09-30T20:13:21.242Z,3.55
2018-09-30T20:15:49.701Z,2.83
2018-09-30T20:18:17.994Z,3.65
2018-09-30T20:20:46.273Z,3.30
2018-09-30T20:23:14.430Z,4.05
2018-09-30T20:25:42.698Z,3.70
2018-09-30T20:28:10.922Z,3.42
2018-09-30T20:30:39.033Z,4.20
2018-09-30T20:33:07.373Z,3.33
2018-09-30T20:35:35.585Z,2.98
2018-09-30T20:38:03.959Z,3.40
2018-09-30T20:40:32.246Z,3.65
2018-09-30T20:43:01.301Z,4.58
2018-09-30T20:45:29.629Z,3.35
2018-09-30T20:47:57.852Z,2.58
2018-09-30T20:50:26.449Z,2.20
2018-09-30T20:52:54.654Z,2.40
2018-09-30T20:55:23.142Z,1.90
2018-09-30T20:57:51.414Z,2.08
2018-09-30T21:00:19.810Z,1.70
2018-09-30T21:02:48.148Z,1.77
2018-09-30T21:05:27.010Z,1.72
2018-09-30T21:07:55.405Z,1.85
2018-09-30T21:10:23.676Z,2.00
2018-09-30T21:12:51.885Z,1.60
2018-09-30T21:15:20.174Z,1.30
2018-09-30T21:17:48.516Z,1.47
2018-09-30T21:20:16.734Z,2.00
2018-09-30T21:22:44.965Z,1.60
2018-09-30T21:25:13.210Z,1.40
2018-09-30T21:27:41.475Z,1.75
2018-09-30T21:30:09.822Z,1.80
2018-09-30T21:32:38.049Z,1.37
2018-09-30T21:35:06.416Z,1.30
2018-09-30T21:37:34.708Z,1.40
2018-09-30T21:40:02.954Z,1.70
2018-09-30T21:42:31.154Z,1.50
2018-09-30T21:44:59.383Z,1.35
2018-09-30T21:47:27.591Z,1.50
2018-09-30T21:49:55.889Z,1.40
2018-09-30T21:52:24.150Z,1.35
2018-09-30T21:54:52.421Z,1.87
2018-09-30T21:57:20.712Z,3.10
2018-09-30T21:59:49.780Z,1.57
2018-09-30T22:02:18.046Z,1.30
2018-09-30T22:04:46.279Z,1.50
2018-09-30T22:07:14.528Z,1.37
2018-09-30T22:09:42.794Z,1.57
2018-09-30T22:12:11.044Z,1.00
2018-09-30T22:14:39.277Z,2.20
2018-09-30T22:17:07.578Z,1.40
2018-09-30T22:19:35.821Z,0.98
2018-09-30T22:22:04.537Z,0.90
2018-09-30T22:24:32.820Z,1.40
2018-09-30T22:27:01.155Z,2.08
2018-09-30T22:29:29.326Z,1.32
2018-09-30T22:31:57.566Z,1.50
2018-09-30T22:34:25.869Z,1.50
2018-09-30T22:36:54.122Z,1.22
2018-09-30T22:39:22.394Z,1.67
2018-09-30T22:41:50.725Z,2.15
2018-09-30T22:44:18.994Z,1.40
2018-09-30T22:46:47.209Z,1.30
2018-09-30T22:49:15.428Z,1.57
2018-09-30T22:51:43.658Z,1.47
2018-09-30T22:54:11.870Z,1.50
2018-09-30T22:56:40.233Z,1.50
2018-09-30T22:59:08.581Z,1.00
2018-09-30T23:01:37.958Z,1.27
2018-09-30T23:04:07.174Z,1.37
2018-09-30T23:06:35.406Z,1.27
2018-09-30T23:09:05.389Z,1.05
2018-09-30T23:11:33.665Z,1.52
2018-09-30T23:14:01.920Z,1.05
2018-09-30T23:16:30.159Z,1.42
2018-09-30T23:18:58.390Z,1.47
2018-09-30T23:21:26.620Z,1.35
2018-09-30T23:23:54.814Z,1.55
2018-09-30T23:26:23.074Z,1.20
2018-09-30T23:28:51.298Z,1.20
2018-09-30T23:31:19.521Z,1.55
2018-09-30T23:33:47.744Z,1.60
2018-09-30T23:36:15.990Z,1.10
2018-09-30T23:38:44.271Z,1.15
2018-09-30T23:41:12.518Z,1.57
2018-09-30T23:43:40.845Z,1.07
2018-09-30T23:46:09.149Z,1.30
2018-09-30T23:48:37.502Z,1.77
2018-09-30T23:51:06.666Z,1.37
2018-09-30T23:53:34.924Z,1.12
2018-09-30T23:56:03.226Z,1.12
2018-09-30T23:58:31.497Z,1.02
